Time;durP1;ratioP1;P1;durP2;ratioP2;P2;SDS_P1;SDS_P2;PMS_P1;PMS_P2;Temp;Humidity;BMP_temperature;BMP_pressure;BME280_temperature;BME280_humidity;BME280_pressure;Samples;Min_cycle;Max_cycle;Signal;HPM_P1;HPM_P2
2023/08/01 00:01:26;;;;;;;65.18;40.00;;;;;;;28.91;75.96;100677.41;5061290;28;66622;-37
2023/08/01 00:04:16;;;;;;;62.70;40.35;;;;;;;29.36;78.11;100739.66;5060154;28;70389;-39
2023/08/01 00:07:07;;;;;;;65.95;43.55;;;;;;;28.99;79.90;100672.84;5059568;28;67577;-38
2023/08/01 00:09:57;;;;;;;72.57;45.10;;;;;;;29.37;81.12;100730.50;5060157;28;71425;-38
2023/08/01 00:12:48;;;;;;;77.03;44.22;;;;;;;29.54;80.83;100751.66;5059401;28;67320;-41
2023/08/01 00:15:38;;;;;;;71.45;43.25;;;;;;;29.48;80.54;100737.13;5057076;28;70336;-38
2023/08/01 00:18:35;;;;;;;65.30;41.15;;;;;;;29.65;79.62;100756.41;5057957;28;67342;-38
2023/08/01 00:21:25;;;;;;;64.57;40.90;;;;;;;29.69;80.79;100764.91;5057880;28;71666;-41
2023/08/01 00:24:16;;;;;;;66.30;37.58;;;;;;;29.58;82.63;100758.25;5052764;28;67762;-40
2023/08/01 00:27:09;;;;;;;59.60;37.65;;;;;;;29.73;82.30;100780.50;5048494;28;71429;-41
2023/08/01 00:29:59;;;;;;;60.03;36.92;;;;;;;29.73;81.79;100777.78;5046370;28;67704;-42
2023/08/01 00:32:49;;;;;;;56.70;33.33;;;;;;;29.75;82.02;100772.16;5055730;28;71070;-40
2023/08/01 00:35:40;;;;;;;55.20;33.95;;;;;;;29.77;81.94;100781.72;5056950;28;67318;-41
2023/08/01 00:38:31;;;;;;;54.47;32.95;;;;;;;29.84;82.27;100779.81;5058610;28;71242;-41
2023/08/01 00:41:21;;;;;;;57.63;33.60;;;;;;;29.83;81.36;100778.13;5071003;28;67575;-40
2023/08/01 00:44:11;;;;;;;46.92;31.27;;;;;;;29.81;81.00;100777.53;5050026;28;71172;-42
2023/08/01 00:47:02;;;;;;;51.63;30.88;;;;;;;29.80;81.49;100770.47;5059130;28;66068;-41
2023/08/01 00:49:54;;;;;;;51.50;29.17;;;;;;;29.92;82.43;100797.66;5058033;28;70697;-41
2023/08/01 00:52:44;;;;;;;55.63;29.25;;;;;;;30.01;79.78;100800.94;5057688;28;66563;-41
2023/08/01 00:55:37;;;;;;;47.90;28.15;;;;;;;30.07;78.49;100805.50;5073780;28;71295;-40
2023/08/01 00:58:27;;;;;;;47.17;26.05;;;;;;;30.16;75.82;100809.59;5060199;28;66925;-39
2023/08/01 01:01:16;;;;;;;40.85;24.13;;;;;;;30.19;74.52;100819.97;5057428;28;70426;-39
2023/08/01 01:04:07;;;;;;;42.17;24.60;;;;;;;30.20;74.42;100807.28;5047124;28;67403;-39
2023/08/01 01:07:06;;;;;;;41.00;22.67;;;;;;;30.24;73.73;100811.25;5048358;28;71530;-38
2023/08/01 01:09:56;;;;;;;38.58;22.15;;;;;;;30.18;73.85;100802.09;5059436;28;67352;-38
2023/08/01 01:12:47;;;;;;;40.00;22.10;;;;;;;30.23;73.32;100801.47;5059980;28;70803;-40
2023/08/01 01:15:37;;;;;;;41.03;21.15;;;;;;;30.17;72.93;100792.34;5059322;28;66879;-39
2023/08/01 01:18:27;;;;;;;33.45;20.88;;;;;;;30.33;73.01;100819.94;5057329;28;71058;-39
2023/08/01 01:21:17;;;;;;;41.13;21.17;;;;;;;30.35;73.04;100831.38;5049466;28;67201;-40
2023/08/01 01:24:25;;;;;;;27.25;19.08;;;;;;;30.36;72.64;100844.66;5059933;28;71562;-39
2023/08/01 01:27:18;;;;;;;31.08;17.65;;;;;;;30.32;72.67;100821.81;5058996;28;67232;-39
2023/08/01 01:30:09;;;;;;;26.80;17.48;;;;;;;30.27;72.04;100827.88;5056350;28;71346;-39
2023/08/01 01:33:00;;;;;;;28.90;17.90;;;;;;;30.42;72.03;100851.09;5059692;28;66758;-40
2023/08/01 01:35:50;;;;;;;21.17;15.77;;;;;;;30.41;72.02;100854.84;5060206;28;70415;-39
2023/08/01 01:38:40;;;;;;;25.95;16.95;;;;;;;30.44;72.31;100870.66;5054369;28;67283;-40
2023/08/01 01:41:30;;;;;;;23.48;16.17;;;;;;;30.44;71.95;100865.25;5052718;28;71042;-41
2023/08/01 01:44:20;;;;;;;27.13;16.63;;;;;;;30.10;71.83;100805.06;5056751;28;65968;-39
2023/08/01 01:47:10;;;;;;;24.88;15.98;;;;;;;30.37;71.71;100848.19;5055168;28;70721;-42
2023/08/01 01:50:01;;;;;;;18.13;14.48;;;;;;;30.49;72.02;100874.38;5055837;28;67345;-40
2023/08/01 01:52:51;;;;;;;21.27;15.52;;;;;;;30.45;71.74;100853.34;5058246;28;71108;-39
2023/08/01 01:55:42;;;;;;;20.80;14.50;;;;;;;30.55;71.50;100866.44;5055684;28;66718;-38
2023/08/01 01:58:32;;;;;;;19.13;13.60;;;;;;;30.57;71.54;100865.16;5054473;28;70621;-40
2023/08/01 02:01:22;;;;;;;18.45;14.07;;;;;;;30.43;71.50;100841.94;5051320;28;66904;-40
2023/08/01 02:04:12;;;;;;;19.63;13.52;;;;;;;30.57;71.45;100856.22;5057536;28;71069;-38
2023/08/01 02:07:03;;;;;;;19.17;13.38;;;;;;;30.57;71.65;100848.91;5054144;28;66524;-39
2023/08/01 02:09:53;;;;;;;18.55;12.38;;;;;;;30.64;71.35;100855.09;5036625;28;71275;-39
2023/08/01 02:12:44;;;;;;;18.02;11.68;;;;;;;30.45;71.24;100824.44;5058056;28;65725;-40
2023/08/01 02:15:34;;;;;;;15.95;11.90;;;;;;;30.69;71.05;100852.56;5057374;28;71286;-38
2023/08/01 02:18:25;;;;;;;14.23;12.55;;;;;;;30.68;71.20;100850.91;5025859;28;67839;-38
2023/08/01 02:21:15;;;;;;;15.75;11.75;;;;;;;30.72;70.87;100854.00;5042442;28;71007;-41
2023/08/01 02:24:05;;;;;;;12.82;11.13;;;;;;;30.74;70.88;100854.63;5058371;28;66287;-39
2023/08/01 02:26:55;;;;;;;15.88;11.57;;;;;;;30.76;70.87;100848.97;5055975;28;72023;-39
2023/08/01 02:29:45;;;;;;;14.75;10.52;;;;;;;30.78;70.83;100841.47;5060775;28;67384;-40
2023/08/01 02:32:35;;;;;;;11.80;10.63;;;;;;;30.80;70.84;100845.66;5051147;28;71104;-39
2023/08/01 02:35:28;;;;;;;16.98;10.88;;;;;;;30.46;70.56;100784.66;5056579;28;67201;-39
2023/08/01 02:38:17;;;;;;;16.58;11.07;;;;;;;30.82;70.79;100842.72;5048004;28;71108;-43
2023/08/01 02:41:08;;;;;;;14.50;10.95;;;;;;;30.72;70.74;100816.91;5041097;28;67274;-38
2023/08/01 02:43:57;;;;;;;15.40;10.35;;;;;;;30.89;70.52;100840.78;5053717;28;71044;-40
2023/08/01 02:46:48;;;;;;;11.05;9.98;;;;;;;30.80;70.68;100818.56;5054256;28;67204;-39
2023/08/01 02:49:38;;;;;;;11.02;9.57;;;;;;;30.94;70.94;100833.66;5050807;28;71047;-40
2023/08/01 02:52:30;;;;;;;10.98;9.05;;;;;;;30.97;70.73;100826.13;5052309;28;66669;-39
2023/08/01 02:55:20;;;;;;;14.55;8.73;;;;;;;30.98;70.66;100828.63;5052178;28;71089;-40
2023/08/01 02:58:11;;;;;;;15.02;9.82;;;;;;;31.01;70.52;100825.47;5053893;28;67182;-40
2023/08/01 03:01:01;;;;;;;14.32;9.48;;;;;;;31.03;70.44;100812.50;5056043;28;71153;-39
2023/08/01 03:03:51;;;;;;;13.85;9.07;;;;;;;31.06;70.52;100806.66;5061021;28;66420;-42
2023/08/01 03:06:41;;;;;;;15.15;8.93;;;;;;;31.06;70.32;100798.53;5051691;28;72332;-40
2023/08/01 03:09:33;;;;;;;16.15;8.88;;;;;;;31.03;70.40;100785.44;5052814;28;67282;-41
2023/08/01 03:12:23;;;;;;;9.52;8.55;;;;;;;31.11;70.53;100789.72;5056860;28;69465;-40
2023/08/01 03:15:13;;;;;;;11.25;8.75;;;;;;;31.14;70.26;100784.69;5053674;28;67726;-39
2023/08/01 03:18:03;;;;;;;10.73;8.90;;;;;;;31.17;70.03;100784.25;5058903;28;70800;-39
2023/08/01 03:20:54;;;;;;;12.98;9.20;;;;;;;31.19;70.10;100781.31;5071075;28;67190;-40
2023/08/01 03:23:44;;;;;;;12.57;9.05;;;;;;;31.24;69.83;100777.94;5056871;28;70881;-39
2023/08/01 03:26:37;;;;;;;12.10;9.02;;;;;;;31.26;70.21;100782.09;5052621;28;67238;-41
2023/08/01 03:29:27;;;;;;;13.57;9.02;;;;;;;31.29;70.01;100783.50;5052628;28;71281;-38
2023/08/01 03:32:18;;;;;;;15.43;9.23;;;;;;;31.32;69.87;100780.34;5056647;28;66931;-40
2023/08/01 03:35:08;;;;;;;12.77;8.65;;;;;;;31.34;69.56;100780.94;5057487;28;70750;-38
2023/08/01 03:37:58;;;;;;;8.38;7.45;;;;;;;31.38;69.96;100779.47;5055157;28;66548;-39
2023/08/01 03:40:50;;;;;;;11.87;8.23;;;;;;;31.38;69.97;100785.72;5054788;28;70780;-41
2023/08/01 03:43:40;;;;;;;10.52;7.93;;;;;;;31.14;69.53;100727.78;5055720;28;67087;-41
2023/08/01 03:46:30;;;;;;;9.38;8.10;;;;;;;31.45;69.37;100773.97;5053258;28;70232;-39
2023/08/01 03:49:22;;;;;;;12.77;8.10;;;;;;;31.37;69.84;100748.84;5051811;28;66556;-40
2023/08/01 03:52:12;;;;;;;9.90;7.63;;;;;;;31.14;69.53;100703.41;5046969;28;71095;-40
2023/08/01 03:55:03;;;;;;;11.55;7.75;;;;;;;31.53;69.35;100755.50;5057159;28;67297;-39
2023/08/01 03:57:52;;;;;;;8.05;7.05;;;;;;;31.56;69.43;100760.47;5056962;28;71092;-40
2023/08/01 04:00:44;;;;;;;8.98;7.13;;;;;;;31.54;69.63;100746.34;5058277;28;66382;-39
2023/08/01 04:03:34;;;;;;;9.18;7.13;;;;;;;31.54;69.37;100751.75;5056360;28;70608;-39
2023/08/01 04:06:25;;;;;;;9.23;7.37;;;;;;;31.57;69.37;100753.19;5048961;28;66854;-40
2023/08/01 04:09:15;;;;;;;8.07;6.68;;;;;;;31.65;69.25;100757.44;5055137;28;71273;-42
2023/08/01 04:12:06;;;;;;;10.30;6.72;;;;;;;31.59;69.19;100743.78;5051245;28;67478;-39
2023/08/01 04:14:56;;;;;;;14.05;6.75;;;;;;;31.69;69.17;100758.66;5048100;28;71200;-40
2023/08/01 04:17:46;;;;;;;10.77;6.85;;;;;;;31.72;68.98;100758.19;5049319;28;67251;-39
2023/08/01 04:20:36;;;;;;;13.38;6.60;;;;;;;31.75;68.92;100753.13;5048599;28;71154;-41
2023/08/01 04:23:26;;;;;;;9.68;6.43;;;;;;;31.72;68.86;100747.34;5051837;28;67413;-39
2023/08/01 04:26:16;;;;;;;11.98;7.13;;;;;;;31.75;69.08;100746.88;5056627;28;71143;-39
2023/08/01 04:29:06;;;;;;;9.32;6.32;;;;;;;31.81;68.79;100745.97;5058452;28;67400;-40
2023/08/01 04:31:56;;;;;;;6.88;6.15;;;;;;;31.82;68.72;100742.22;5053659;28;71197;-39
2023/08/01 04:34:46;;;;;;;7.70;6.13;;;;;;;31.86;68.76;100737.97;5059192;28;66645;-41
2023/08/01 04:37:36;;;;;;;11.82;6.40;;;;;;;31.88;68.54;100735.84;5052033;28;70417;-41
2023/08/01 04:40:26;;;;;;;6.30;5.70;;;;;;;31.90;68.69;100733.75;5060168;28;67454;-40
2023/08/01 04:43:16;;;;;;;7.50;5.75;;;;;;;31.87;68.55;100728.75;5058546;28;70511;-39
2023/08/01 04:46:06;;;;;;;8.00;5.82;;;;;;;31.93;68.73;100727.88;5049755;28;66692;-41
2023/08/01 04:48:58;;;;;;;6.97;5.55;;;;;;;31.95;68.46;100724.94;5048713;28;71287;-40
2023/08/01 04:51:52;;;;;;;7.30;5.47;;;;;;;31.97;68.48;100720.94;5055351;28;65974;-40
2023/08/01 04:54:42;;;;;;;6.15;4.88;;;;;;;31.97;68.45;100707.38;5053880;28;71274;-39
2023/08/01 04:57:32;;;;;;;8.30;5.45;;;;;;;32.00;68.38;100706.91;5054450;28;66721;-38
2023/08/01 05:00:22;;;;;;;10.18;5.07;;;;;;;31.89;68.05;100688.69;5057126;28;70305;-39
2023/08/01 05:03:12;;;;;;;5.45;4.90;;;;;;;32.04;68.16;100697.25;5060262;28;66787;-42
2023/08/01 05:06:03;;;;;;;5.80;5.20;;;;;;;31.74;67.93;100642.19;5056533;28;71131;-38
2023/08/01 05:08:53;;;;;;;5.15;4.70;;;;;;;32.07;68.22;100684.25;5058761;28;66596;-40
2023/08/01 05:11:43;;;;;;;5.15;4.57;;;;;;;31.92;68.17;100658.41;5052859;28;71646;-41
2023/08/01 05:14:33;;;;;;;5.45;4.95;;;;;;;32.12;67.98;100697.97;5058510;28;67096;-42
2023/08/01 05:17:23;;;;;;;10.00;5.80;;;;;;;32.12;68.05;100676.25;5057251;28;71246;-40
2023/08/01 05:20:14;;;;;;;6.03;5.35;;;;;;;32.13;67.97;100684.16;5056381;28;67517;-40
2023/08/01 05:23:04;;;;;;;7.85;4.75;;;;;;;32.17;67.88;100673.66;5054988;28;71087;-41
2023/08/01 05:25:54;;;;;;;8.63;4.70;;;;;;;32.21;68.02;100680.28;5054103;28;65249;-41
2023/08/01 05:28:44;;;;;;;5.28;4.68;;;;;;;32.21;67.74;100672.16;5052568;28;71264;-40
2023/08/01 05:31:34;;;;;;;5.90;5.30;;;;;;;32.11;67.69;100636.63;5051741;28;66583;-42
2023/08/01 05:34:24;;;;;;;6.22;4.65;;;;;;;32.27;67.55;100666.59;5055717;28;71142;-41
2023/08/01 05:37:14;;;;;;;8.25;4.95;;;;;;;32.31;67.65;100661.50;5052059;28;66784;-39
2023/08/01 05:40:06;;;;;;;4.82;4.43;;;;;;;31.85;67.67;100572.75;5051089;28;71129;-39
2023/08/01 05:42:55;;;;;;;5.05;4.60;;;;;;;32.23;67.50;100640.16;5052738;28;67247;-40
2023/08/01 05:45:46;;;;;;;5.22;4.38;;;;;;;32.35;67.33;100654.56;5051703;28;71309;-41
2023/08/01 05:48:38;;;;;;;10.02;4.57;;;;;;;31.89;67.40;100580.16;5049041;28;66645;-40
2023/08/01 05:51:28;;;;;;;7.35;4.25;;;;;;;31.86;67.10;100558.94;5052365;28;71036;-41
2023/08/01 05:54:18;;;;;;;4.88;4.30;;;;;;;32.18;66.99;100593.88;5051042;28;66400;-40
2023/08/01 05:57:08;;;;;;;5.47;4.88;;;;;;;32.47;66.88;100630.97;5051406;28;70009;-42
2023/08/01 05:59:59;;;;;;;8.30;4.47;;;;;;;32.42;66.97;100617.25;5058775;28;66518;-41
2023/08/01 06:03:00;;;;;;;7.03;4.97;;;;;;;32.37;66.84;100603.56;5054753;28;70813;-40
2023/08/01 06:05:51;;;;;;;5.20;4.50;;;;;;;32.55;66.77;100626.25;5054049;28;67392;-40
2023/08/01 06:08:41;;;;;;;7.07;4.80;;;;;;;32.58;66.73;100625.78;5054086;28;71094;-39
2023/08/01 06:11:33;;;;;;;7.72;5.20;;;;;;;32.60;66.90;100624.47;5044339;28;67194;-41
2023/08/01 06:14:23;;;;;;;6.45;5.13;;;;;;;32.57;66.56;100596.97;5057851;28;71107;-39
2023/08/01 06:17:13;;;;;;;5.72;4.85;;;;;;;32.62;66.47;100599.78;5052538;28;66688;-40
2023/08/01 06:20:06;;;;;;;5.93;4.72;;;;;;;32.70;66.15;100602.97;5057551;28;71060;-40
2023/08/01 06:22:56;;;;;;;5.00;4.60;;;;;;;32.71;66.05;100598.38;5056044;28;67201;-40
2023/08/01 06:25:46;;;;;;;5.85;4.70;;;;;;;32.68;65.82;100577.94;5053948;28;70990;-41
2023/08/01 06:28:36;;;;;;;4.70;4.40;;;;;;;32.72;65.85;100589.16;5051143;28;66084;-40
2023/08/01 06:31:26;;;;;;;4.72;4.32;;;;;;;32.81;66.00;100584.16;5055692;28;70037;-41
2023/08/01 06:34:16;;;;;;;9.38;5.25;;;;;;;32.70;65.79;100564.13;5054341;28;67165;-41
2023/08/01 06:37:06;;;;;;;8.80;4.65;;;;;;;32.86;65.64;100579.66;5050840;28;70218;-39
2023/08/01 06:39:58;;;;;;;5.70;5.10;;;;;;;32.74;65.82;100540.03;5050454;28;66966;-40
2023/08/01 06:42:48;;;;;;;;;;;;;;;32.60;66.06;100564.75;5063986;28;71128;-40
2023/08/01 06:45:38;;;;;;;7.70;5.00;;;;;;;32.81;65.83;100544.25;5047577;28;67571;-41
2023/08/01 06:48:28;;;;;;;8.60;5.50;;;;;;;32.93;65.41;100547.75;5055937;28;70618;-40
2023/08/01 06:51:20;;;;;;;5.47;4.80;;;;;;;32.78;65.02;100522.19;5053104;28;67147;-40
2023/08/01 06:54:10;;;;;;;5.72;4.93;;;;;;;33.00;65.32;100557.69;5050436;28;70451;-41
2023/08/01 06:57:00;;;;;;;7.10;5.10;;;;;;;33.00;65.24;100547.63;5051464;28;65971;-40
2023/08/01 06:59:50;;;;;;;7.97;5.50;;;;;;;33.04;65.24;100542.53;5045969;28;70822;-41
2023/08/01 07:02:41;;;;;;;6.22;5.28;;;;;;;32.86;64.79;100513.63;5053718;28;67361;-40
2023/08/01 07:05:31;;;;;;;5.97;5.47;;;;;;;33.08;64.88;100539.09;5056878;28;70484;-40
2023/08/01 07:08:21;;;;;;;8.77;5.45;;;;;;;33.10;64.95;100539.69;5056276;28;67219;-41
2023/08/01 07:11:11;;;;;;;10.02;6.43;;;;;;;33.07;64.95;100534.72;5043358;28;70078;-41
2023/08/01 07:14:01;;;;;;;6.47;5.95;;;;;;;33.15;64.82;100542.50;5045149;28;67332;-40
2023/08/01 07:16:51;;;;;;;10.77;6.97;;;;;;;33.10;64.57;100525.28;5053850;28;70939;-41
2023/08/01 07:19:41;;;;;;;7.88;7.03;;;;;;;33.21;64.37;100537.97;5049047;28;67225;-40
2023/08/01 07:22:31;;;;;;;8.50;6.70;;;;;;;33.23;64.15;100535.81;5044537;28;71127;-39
2023/08/01 07:25:22;;;;;;;10.18;6.57;;;;;;;33.19;64.18;100512.94;5052764;28;66498;-40
2023/08/01 07:28:12;;;;;;;9.00;6.97;;;;;;;33.25;64.33;100533.69;5053562;28;71156;-40
2023/08/01 07:31:05;;;;;;;8.50;7.60;;;;;;;33.20;63.99;100517.28;5044588;28;67722;-40
2023/08/01 07:33:57;;;;;;;8.18;7.57;;;;;;;33.29;64.14;100523.13;5050574;28;70496;-40
2023/08/01 07:36:49;;;;;;;8.05;7.35;;;;;;;33.31;63.87;100521.81;5054650;28;67359;-40
2023/08/01 07:39:40;;;;;;;8.57;7.53;;;;;;;33.34;64.25;100526.75;5051461;28;71621;-40
2023/08/01 07:42:30;;;;;;;8.48;7.30;;;;;;;33.20;64.06;100492.81;5052530;28;67625;-40
2023/08/01 07:45:21;;;;;;;11.95;7.88;;;;;;;33.25;64.16;100500.25;5050625;28;72169;-41
2023/08/01 07:48:11;;;;;;;10.43;8.15;;;;;;;33.37;64.01;100509.97;5057476;28;67330;-41
2023/08/01 07:51:03;;;;;;;9.77;7.95;;;;;;;33.43;63.74;100497.28;5057482;28;70316;-40
2023/08/01 07:53:54;;;;;;;9.23;8.38;;;;;;;33.29;63.85;100469.63;5050395;28;67443;-39
2023/08/01 07:56:48;;;;;;;9.23;8.35;;;;;;;33.38;63.87;100483.63;5057885;28;71192;-40
2023/08/01 07:59:38;;;;;;;11.68;8.05;;;;;;;33.43;63.55;100477.41;5056587;28;67377;-40
2023/08/01 08:02:28;;;;;;;10.77;7.72;;;;;;;33.46;63.59;100476.91;5056057;28;71164;-41
2023/08/01 08:05:19;;;;;;;10.30;8.20;;;;;;;33.46;63.71;100476.91;5050811;28;67361;-40
2023/08/01 08:08:08;;;;;;;8.55;7.72;;;;;;;33.51;63.61;100483.25;5049000;28;70285;-41
2023/08/01 08:10:58;;;;;;;9.68;8.30;;;;;;;33.51;63.42;100472.38;5059774;28;66351;-41
2023/08/01 08:13:48;;;;;;;9.88;8.02;;;;;;;33.53;63.31;100466.75;5061112;28;71209;-40
2023/08/01 08:16:39;;;;;;;8.50;7.72;;;;;;;33.46;63.57;100458.75;5059250;28;67481;-40
2023/08/01 08:19:29;;;;;;;12.48;8.10;;;;;;;33.53;63.30;100464.03;5053688;28;71294;-40
2023/08/01 08:22:20;;;;;;;9.57;8.57;;;;;;;33.58;63.23;100466.84;5062020;28;67294;-41
2023/08/01 08:25:10;;;;;;;9.48;8.65;;;;;;;33.58;63.28;100462.22;5060503;28;70520;-40
2023/08/01 08:28:00;;;;;;;13.65;8.75;;;;;;;33.61;63.35;100463.59;5060504;28;66595;-41
2023/08/01 08:30:50;;;;;;;10.10;8.55;;;;;;;33.62;63.18;100454.38;5058643;28;70308;-40
2023/08/01 08:33:40;;;;;;;10.07;8.77;;;;;;;33.63;63.12;100447.88;5054659;28;66807;-41
2023/08/01 08:36:30;;;;;;;10.63;8.85;;;;;;;33.54;63.12;100446.63;5055250;28;71083;-40
2023/08/01 08:39:20;;;;;;;11.95;8.98;;;;;;;33.53;63.07;100439.56;5054147;28;66659;-41
2023/08/01 08:42:13;;;;;;;13.13;8.60;;;;;;;33.64;63.16;100460.38;5053498;28;44092;-41
2023/08/01 08:45:06;;;;;;;9.77;8.50;;;;;;;33.61;63.35;100458.16;5055749;28;67302;-40
2023/08/01 08:47:58;;;;;;;14.60;8.93;;;;;;;33.66;62.87;100469.13;5054222;28;71083;-41
2023/08/01 08:50:50;;;;;;;10.15;9.10;;;;;;;33.59;62.87;100452.16;5053221;28;66482;-41
2023/08/01 08:53:42;;;;;;;14.52;9.35;;;;;;;33.20;63.45;100389.53;5054787;28;70547;-41
2023/08/01 08:56:33;;;;;;;14.40;9.30;;;;;;;33.65;62.99;100463.94;5056483;28;66546;-41
2023/08/01 08:59:25;;;;;;;9.77;8.88;;;;;;;33.50;63.16;100443.56;5052646;28;71170;-41
2023/08/01 09:02:16;;;;;;;9.32;8.43;;;;;;;32.75;63.29;100322.50;5051871;28;67783;-40
2023/08/01 09:05:06;;;;;;;10.15;8.90;;;;;;;33.65;63.38;100462.03;5054485;28;71524;-41
2023/08/01 09:08:02;;;;;;;9.82;8.63;;;;;;;33.65;63.30;100466.66;5056463;28;67283;-40
2023/08/01 09:10:51;;;;;;;9.32;8.45;;;;;;;33.71;63.06;100471.09;5060060;28;70581;-41
2023/08/01 09:13:41;;;;;;;10.35;9.10;;;;;;;33.62;63.19;100459.81;5056887;28;67295;-41
2023/08/01 09:16:33;;;;;;;9.68;8.65;;;;;;;33.72;62.99;100465.41;5057658;28;72542;-40
2023/08/01 09:19:27;;;;;;;12.88;8.60;;;;;;;32.79;63.08;100326.38;5055681;28;67271;-40
2023/08/01 09:22:18;;;;;;;9.70;8.55;;;;;;;33.62;63.16;100462.53;5059764;28;69892;-43
2023/08/01 09:25:08;;;;;;;11.65;8.95;;;;;;;33.73;63.33;100475.22;5056829;28;67909;-42
2023/08/01 09:27:57;;;;;;;11.13;8.65;;;;;;;33.73;63.34;100477.91;5057074;28;71323;-41
2023/08/01 09:30:57;;;;;;;8.60;7.80;;;;;;;33.11;62.76;100388.31;5059794;28;67272;-41
2023/08/01 09:33:47;;;;;;;8.77;7.97;;;;;;;33.72;63.41;100484.44;5058704;28;71748;-41
2023/08/01 09:36:37;;;;;;;8.93;8.02;;;;;;;33.74;63.39;100487.75;5061092;28;67335;-40
2023/08/01 09:39:27;;;;;;;8.90;7.82;;;;;;;33.44;63.41;100438.31;5053306;28;71121;-41
2023/08/01 09:42:17;;;;;;;9.18;8.35;;;;;;;33.72;63.17;100483.63;5057885;28;67277;-40
2023/08/01 09:45:17;;;;;;;11.40;8.13;;;;;;;33.70;62.90;100483.88;5053529;28;71150;-40
2023/08/01 09:48:07;;;;;;;8.98;8.05;;;;;;;33.72;63.19;100483.63;5054267;28;67273;-41
2023/08/01 09:51:14;;;;;;;10.20;8.15;;;;;;;33.26;63.02;100414.91;5054995;28;71070;-39
2023/08/01 09:54:04;;;;;;;9.65;7.47;;;;;;;33.34;63.43;100412.59;5055427;28;66626;-40
2023/08/01 09:56:56;;;;;;;9.23;8.35;;;;;;;33.70;63.11;100470.25;5054633;28;70358;-42
2023/08/01 09:59:45;;;;;;;8.93;8.07;;;;;;;33.46;63.16;100436.13;5055185;28;67346;-40
2023/08/01 10:02:37;;;;;;;8.18;7.15;;;;;;;33.73;63.51;100469.75;5052263;28;71419;-41
2023/08/01 10:05:31;;;;;;;9.13;7.35;;;;;;;33.20;63.28;100389.53;5051120;28;67436;-41
2023/08/01 10:08:23;;;;;;;9.57;7.93;;;;;;;33.71;63.12;100477.38;5054751;28;71083;-40
2023/08/01 10:11:18;;;;;;;8.77;7.47;;;;;;;33.20;63.08;100405.03;5053543;28;65597;-40
2023/08/01 10:14:08;;;;;;;8.25;7.65;;;;;;;33.71;63.44;100482.81;5055041;28;70335;-41
2023/08/01 10:16:59;;;;;;;7.70;7.15;;;;;;;33.60;63.21;100470.13;5067073;28;66219;-41
2023/08/01 10:19:51;;;;;;;8.85;8.05;;;;;;;33.65;63.66;100477.53;5054985;28;71210;-39
2023/08/01 10:22:42;;;;;;;28.77;9.40;;;;;;;33.32;66.18;100496.31;5052865;28;67187;-41
2023/08/01 10:25:32;;;;;;;20.73;12.88;;;;;;;33.12;67.28;100479.63;5056874;28;71143;-40
2023/08/01 10:28:35;;;;;;;20.77;14.77;;;;;;;32.57;67.91;100417.75;5052690;28;67470;-40
2023/08/01 10:31:25;;;;;;;17.60;13.77;;;;;;;32.94;68.21;100495.06;5054340;28;71129;-41
2023/08/01 10:34:15;;;;;;;22.60;13.02;;;;;;;32.90;68.23;100493.06;5059485;28;67262;-41
2023/08/01 10:37:05;;;;;;;94.78;21.75;;;;;;;32.89;69.45;100503.09;5055192;28;71070;-41
2023/08/01 10:40:00;;;;;;;80.75;24.48;;;;;;;32.69;70.88;100475.56;5053200;28;67242;-42
2023/08/01 10:42:50;;;;;;;90.25;29.83;;;;;;;32.80;71.02;100499.13;5055545;28;70101;-40
2023/08/01 10:45:40;;;;;;;87.05;33.90;;;;;;;32.84;71.68;100527.44;5055351;28;65966;-39
2023/08/01 10:48:30;;;;;;;102.18;38.30;;;;;;;32.88;71.59;100536.78;5054536;28;70650;-40
2023/08/01 10:51:20;;;;;;;92.72;38.55;;;;;;;32.91;71.07;100544.44;5058129;28;67481;-41
2023/08/01 10:54:21;;;;;;;80.60;36.03;;;;;;;32.80;72.09;100553.47;5057357;28;71245;-41
2023/08/01 10:57:19;;;;;;;74.95;35.38;;;;;;;32.55;72.35;100507.63;5058671;28;67434;-42
2023/08/01 11:00:10;;;;;;;73.05;35.25;;;;;;;32.76;72.65;100540.59;5058046;28;70348;-40
2023/08/01 11:03:00;;;;;;;66.03;32.45;;;;;;;32.75;72.86;100539.78;5057517;28;66649;-41
2023/08/01 11:05:58;;;;;;;54.00;26.50;;;;;;;32.32;72.47;100475.91;5053716;28;70334;-42
2023/08/01 11:08:47;;;;;;;47.33;25.48;;;;;;;32.77;72.39;100561.28;5057663;28;67343;-41
2023/08/01 11:11:37;;;;;;;42.40;22.52;;;;;;;32.71;72.09;100560.34;5059393;28;71069;-40
2023/08/01 11:14:28;;;;;;;38.38;22.77;;;;;;;32.21;71.57;100474.84;5059317;28;66892;-41
2023/08/01 11:17:18;;;;;;;37.35;25.95;;;;;;;32.75;71.67;100561.50;5055222;28;71149;-43
2023/08/01 11:20:10;;;;;;;60.55;41.60;;;;;;;32.15;72.09;100464.13;5053832;28;67244;-43
2023/08/01 11:23:01;;;;;;;62.97;44.88;;;;;;;32.72;72.38;100584.53;5057815;28;71086;-39
2023/08/01 11:25:51;;;;;;;65.43;50.13;;;;;;;32.68;72.42;100577.09;5045917;28;66474;-39
2023/08/01 11:28:41;;;;;;;73.07;53.92;;;;;;;32.67;72.43;100586.31;5055443;28;71128;-39
2023/08/01 11:31:33;;;;;;;63.35;52.55;;;;;;;32.57;72.50;100569.81;5056929;28;67195;-40
2023/08/01 11:34:23;;;;;;;62.25;50.92;;;;;;;32.67;72.54;100587.16;5050278;28;70708;-41
2023/08/01 11:37:19;;;;;;;66.22;51.75;;;;;;;32.67;72.54;100592.56;5054983;28;66868;-43
2023/08/01 11:40:10;;;;;;;62.63;48.45;;;;;;;32.65;72.56;100593.88;5052457;28;71220;-41
2023/08/01 11:43:00;;;;;;;51.28;45.78;;;;;;;32.59;72.52;100586.69;5051964;28;66492;-39
2023/08/01 11:45:55;;;;;;;51.63;44.50;;;;;;;32.62;72.29;100586.22;5061377;28;71097;-41
2023/08/01 11:48:51;;;;;;;51.40;41.75;;;;;;;32.49;71.28;100571.84;5051716;28;67283;-38
2023/08/01 11:51:42;;;;;;;40.28;33.10;;;;;;;32.39;71.44;100568.88;5058796;28;71228;-37
2023/08/01 11:54:32;;;;;;;35.83;31.58;;;;;;;32.36;71.25;100547.63;5058678;28;67327;-40
2023/08/01 11:57:23;;;;;;;40.97;30.67;;;;;;;32.58;71.23;100587.78;5054393;28;69943;-42
2023/08/01 12:00:25;;;;;;;35.97;28.25;;;;;;;31.99;71.63;100525.38;5058325;28;67323;-42
2023/08/01 12:03:15;;;;;;;30.48;25.98;;;;;;;32.45;72.33;100608.63;5055294;28;71156;-41
2023/08/01 12:06:11;;;;;;;30.40;23.63;;;;;;;32.25;72.15;100570.19;5059415;28;67335;-41
2023/08/01 12:09:13;;;;;;;25.88;23.13;;;;;;;32.44;73.24;100603.47;5056742;28;71180;-41
2023/08/01 12:12:04;;;;;;;26.40;21.55;;;;;;;32.40;73.99;100592.25;5058771;28;66516;-43
2023/08/01 12:14:54;;;;;;;26.80;22.30;;;;;;;32.47;73.53;100598.41;5056963;28;70639;-40
2023/08/01 12:17:44;;;;;;;24.70;19.48;;;;;;;32.46;74.22;100590.50;5051629;28;67291;-44
2023/08/01 12:20:34;;;;;;;20.48;18.45;;;;;;;32.43;74.24;100591.78;5055765;28;71100;-45
2023/08/01 12:23:24;;;;;;;20.23;18.23;;;;;;;32.45;74.30;100600.47;5057634;28;67221;-43
2023/08/01 12:26:14;;;;;;;24.00;17.85;;;;;;;32.47;74.00;100601.13;5058756;28;71101;-43
2023/08/01 12:29:05;;;;;;;23.17;17.67;;;;;;;32.63;72.20;100586.00;5056476;28;66451;-46
2023/08/01 12:31:55;;;;;;;20.35;16.48;;;;;;;32.74;71.65;100600.59;5055812;28;71154;-45
2023/08/01 12:34:44;;;;;;;21.25;15.65;;;;;;;32.86;71.07;100614.97;5057964;28;66360;-46
2023/08/01 12:37:34;;;;;;;19.75;16.83;;;;;;;32.84;70.73;100608.13;5059723;28;70381;-45
2023/08/01 12:40:24;;;;;;;25.63;17.45;;;;;;;32.81;70.41;100609.44;5041963;28;67274;-46
2023/08/01 12:43:16;;;;;;;23.63;16.13;;;;;;;32.93;70.32;100634.69;5056255;28;71191;-44
2023/08/01 12:46:06;;;;;;;23.08;15.65;;;;;;;32.94;70.37;100641.78;5058560;28;66585;-46
2023/08/01 12:48:56;;;;;;;22.38;16.48;;;;;;;32.94;70.21;100652.63;5061913;28;71098;-46
2023/08/01 12:51:46;;;;;;;17.67;15.75;;;;;;;32.59;70.15;100594.84;5062821;28;67220;-44
2023/08/01 12:54:39;;;;;;;19.77;15.20;;;;;;;32.97;69.90;100666.81;5055526;28;70348;-44
2023/08/01 12:57:29;;;;;;;19.80;15.50;;;;;;;32.97;69.90;100661.38;5058205;28;67446;-46
2023/08/01 13:00:19;;;;;;;20.40;14.70;;;;;;;32.91;70.35;100653.13;5049569;28;70668;-44
2023/08/01 13:03:08;;;;;;;16.50;14.77;;;;;;;32.53;70.12;100590.38;5050840;28;67327;-48
2023/08/01 13:05:59;;;;;;;20.15;14.50;;;;;;;32.94;69.65;100658.06;5056678;28;70474;-44